createdAt,value
2018-01-15T00:00:52.490Z,940.35
2018-01-15T00:01:52.484Z,940.34
2018-01-15T00:02:52.477Z,940.33
2018-01-15T00:03:52.470Z,940.34
2018-01-15T00:04:52.463Z,940.33
2018-01-15T00:05:52.457Z,940.30
2018-01-15T00:06:52.449Z,940.30
2018-01-15T00:07:52.445Z,940.27
2018-01-15T00:08:52.437Z,940.27
2018-01-15T00:09:52.429Z,940.27
2018-01-15T00:10:52.424Z,940.25
2018-01-15T00:11:52.419Z,940.24
2018-01-15T00:12:52.409Z,940.22
2018-01-15T00:13:52.405Z,940.16
2018-01-15T00:14:52.395Z,940.15
2018-01-15T00:15:52.388Z,940.18
2018-01-15T00:16:52.383Z,940.21
2018-01-15T00:17:52.375Z,940.20
2018-01-15T00:18:52.369Z,940.22
2018-01-15T00:19:52.360Z,940.23
2018-01-15T00:20:52.355Z,940.20
2018-01-15T00:21:52.348Z,940.20
2018-01-15T00:22:52.345Z,940.23
2018-01-15T00:23:52.333Z,940.20
2018-01-15T00:24:52.327Z,940.24
2018-01-15T00:25:52.321Z,940.23
2018-01-15T00:26:52.314Z,940.24
2018-01-15T00:27:52.306Z,940.23
2018-01-15T00:28:52.299Z,940.21
2018-01-15T00:29:52.292Z,940.21
2018-01-15T00:30:52.287Z,940.17
2018-01-15T00:31:52.278Z,940.19
2018-01-15T00:32:52.272Z,940.19
2018-01-15T00:33:52.265Z,940.16
2018-01-15T00:34:52.257Z,940.13
2018-01-15T00:35:52.250Z,940.17
2018-01-15T00:36:52.242Z,940.20
2018-01-15T00:37:52.236Z,940.16
2018-01-15T00:38:52.228Z,940.17
2018-01-15T00:39:52.221Z,940.19
2018-01-15T00:40:52.217Z,940.15
2018-01-15T00:41:52.209Z,940.15
2018-01-15T00:42:52.205Z,940.14
2018-01-15T00:43:52.198Z,940.10
2018-01-15T00:44:52.186Z,940.12
2018-01-15T00:45:52.181Z,940.08
2018-01-15T00:46:52.173Z,940.12
2018-01-15T00:47:52.167Z,940.10
2018-01-15T00:48:52.158Z,940.07
2018-01-15T00:49:52.152Z,940.04
2018-01-15T00:50:52.144Z,940.09
2018-01-15T00:51:52.137Z,940.08
2018-01-15T00:52:52.130Z,940.11
2018-01-15T00:53:52.124Z,940.09
2018-01-15T00:54:52.116Z,940.10
2018-01-15T00:55:52.109Z,940.10
2018-01-15T00:56:52.101Z,940.12
2018-01-15T00:57:52.095Z,940.14
2018-01-15T00:58:52.088Z,940.13
2018-01-15T00:59:52.079Z,940.15
2018-01-15T01:00:52.074Z,940.13
2018-01-15T01:01:52.068Z,940.13
2018-01-15T01:02:52.060Z,940.12
2018-01-15T01:03:52.052Z,940.08
2018-01-15T01:04:52.045Z,940.09
2018-01-15T01:05:52.038Z,940.08
2018-01-15T01:06:52.031Z,940.10
2018-01-15T01:07:52.023Z,940.15
2018-01-15T01:08:52.015Z,940.15
2018-01-15T01:09:52.009Z,940.16
2018-01-15T01:10:52.002Z,940.15
2018-01-15T01:11:51.993Z,940.14
2018-01-15T01:12:51.986Z,940.11
2018-01-15T01:13:51.978Z,940.13
2018-01-15T01:14:51.972Z,940.16
2018-01-15T01:15:51.964Z,940.13
2018-01-15T01:16:51.957Z,940.17
2018-01-15T01:17:51.949Z,940.19
2018-01-15T01:18:51.943Z,940.13
2018-01-15T01:19:51.933Z,940.11
2018-01-15T01:20:51.928Z,940.10
2018-01-15T01:21:51.919Z,940.09
2018-01-15T01:22:51.913Z,940.06
2018-01-15T01:23:51.905Z,940.08
2018-01-15T01:24:51.897Z,940.09
2018-01-15T01:25:51.890Z,940.08
2018-01-15T01:26:51.882Z,940.06
2018-01-15T01:27:51.876Z,940.07
2018-01-15T01:28:51.867Z,940.03
2018-01-15T01:29:51.859Z,940.03
2018-01-15T01:30:51.852Z,940.06
2018-01-15T01:31:51.844Z,940.05
2018-01-15T01:32:51.837Z,940.03
2018-01-15T01:33:51.828Z,940.05
2018-01-15T01:34:51.823Z,940.01
2018-01-15T01:35:51.814Z,940.02
2018-01-15T01:36:51.805Z,939.97
2018-01-15T01:37:51.799Z,939.99
2018-01-15T01:38:51.793Z,940.01
2018-01-15T01:39:51.783Z,939.99
2018-01-15T01:40:51.777Z,939.98
2018-01-15T01:41:51.807Z,939.97
2018-01-15T01:42:51.761Z,939.98
2018-01-15T01:43:51.754Z,939.98
2018-01-15T01:44:51.746Z,939.98
2018-01-15T01:45:51.738Z,939.99
2018-01-15T01:46:51.730Z,939.97
2018-01-15T01:47:51.723Z,939.97
2018-01-15T01:48:51.714Z,939.92
2018-01-15T01:49:51.707Z,939.94
2018-01-15T01:50:51.700Z,939.94
2018-01-15T01:51:51.691Z,939.93
2018-01-15T01:52:51.683Z,939.92
2018-01-15T01:53:51.676Z,939.88
2018-01-15T01:54:51.670Z,939.91
2018-01-15T01:55:51.660Z,939.91
2018-01-15T01:56:51.653Z,939.93
2018-01-15T01:57:51.646Z,939.90
2018-01-15T01:58:51.638Z,939.88
2018-01-15T01:59:51.628Z,939.93
2018-01-15T02:00:51.620Z,939.89
2018-01-15T02:01:51.614Z,939.85
2018-01-15T02:02:51.605Z,939.82
2018-01-15T02:03:51.598Z,939.83
2018-01-15T02:04:51.594Z,939.82
2018-01-15T02:05:51.583Z,939.87
2018-01-15T02:06:51.575Z,939.88
2018-01-15T02:07:51.566Z,939.84
2018-01-15T02:08:51.559Z,939.83
2018-01-15T02:09:51.551Z,939.78
2018-01-15T02:10:51.543Z,939.75
2018-01-15T02:11:51.534Z,939.78
2018-01-15T02:12:51.528Z,939.78
2018-01-15T02:13:51.519Z,939.72
2018-01-15T02:14:51.512Z,939.80
2018-01-15T02:15:51.504Z,939.73
2018-01-15T02:16:51.495Z,939.69
2018-01-15T02:17:51.488Z,939.71
2018-01-15T02:18:51.480Z,939.71
2018-01-15T02:19:51.471Z,939.70
2018-01-15T02:20:51.464Z,939.73
2018-01-15T02:21:51.456Z,939.70
2018-01-15T02:22:51.449Z,939.69
2018-01-15T02:23:51.439Z,939.72
2018-01-15T02:24:51.432Z,939.69
2018-01-15T02:25:51.423Z,939.75
2018-01-15T02:26:51.418Z,939.72
2018-01-15T02:27:51.409Z,939.71
2018-01-15T02:28:51.400Z,939.70
2018-01-15T02:29:51.393Z,939.69
2018-01-15T02:30:51.386Z,939.74
2018-01-15T02:31:51.376Z,939.72
2018-01-15T02:32:51.369Z,939.74
2018-01-15T02:33:51.360Z,939.68
2018-01-15T02:34:51.353Z,939.71
2018-01-15T02:35:51.344Z,939.71
2018-01-15T02:36:51.336Z,939.66
2018-01-15T02:37:51.332Z,939.74
2018-01-15T02:38:51.321Z,939.71
2018-01-15T02:39:51.311Z,939.68
2018-01-15T02:40:51.304Z,939.69
2018-01-15T02:41:51.299Z,939.66
2018-01-15T02:42:51.294Z,939.63
2018-01-15T02:43:51.281Z,939.67
2018-01-15T02:44:51.272Z,939.63
2018-01-15T02:45:51.265Z,939.59
2018-01-15T02:46:51.256Z,939.60
2018-01-15T02:47:51.246Z,939.62
2018-01-15T02:48:51.239Z,939.62
2018-01-15T02:49:51.232Z,939.60
2018-01-15T02:50:51.233Z,939.57
2018-01-15T02:51:51.217Z,939.54
2018-01-15T02:52:51.209Z,939.58
2018-01-15T02:53:51.203Z,939.54
2018-01-15T02:54:51.196Z,939.57
2018-01-15T02:55:51.184Z,939.57
2018-01-15T02:56:51.179Z,939.55
2018-01-15T02:57:51.167Z,939.58
2018-01-15T02:58:51.160Z,939.54
2018-01-15T02:59:51.150Z,939.53
2018-01-15T03:00:51.142Z,939.52
2018-01-15T03:01:51.134Z,939.55
2018-01-15T03:02:51.127Z,939.50
2018-01-15T03:03:51.118Z,939.46
2018-01-15T03:04:51.109Z,939.49
2018-01-15T03:05:51.101Z,939.46
2018-01-15T03:06:51.094Z,939.46
2018-01-15T03:07:51.092Z,939.46
2018-01-15T03:08:51.076Z,939.48
2018-01-15T03:09:51.070Z,939.48
2018-01-15T03:10:51.060Z,939.48
2018-01-15T03:11:51.052Z,939.46
2018-01-15T03:12:51.043Z,939.44
2018-01-15T03:13:51.035Z,939.46
2018-01-15T03:14:51.027Z,939.44
2018-01-15T03:15:51.020Z,939.44
2018-01-15T03:16:51.012Z,939.42
2018-01-15T03:17:51.002Z,939.45
2018-01-15T03:18:50.996Z,939.44
2018-01-15T03:19:50.991Z,939.42
2018-01-15T03:20:50.977Z,939.42
2018-01-15T03:21:50.970Z,939.46
2018-01-15T03:22:50.962Z,939.45
2018-01-15T03:23:50.953Z,939.43
2018-01-15T03:24:50.946Z,939.40
2018-01-15T03:25:50.938Z,939.38
2018-01-15T03:26:50.986Z,939.39
2018-01-15T03:27:50.924Z,939.39
2018-01-15T03:28:50.912Z,939.37
2018-01-15T03:29:50.904Z,939.41
2018-01-15T03:30:50.896Z,939.40
2018-01-15T03:31:50.888Z,939.35
2018-01-15T03:32:50.880Z,939.31
2018-01-15T03:33:50.872Z,939.28
2018-01-15T03:34:50.864Z,939.30
2018-01-15T03:35:50.854Z,939.27
2018-01-15T03:36:50.846Z,939.28
2018-01-15T03:37:50.840Z,939.23
2018-01-15T03:38:50.830Z,939.25
2018-01-15T03:39:50.821Z,939.26
2018-01-15T03:40:50.814Z,939.29
2018-01-15T03:41:50.805Z,939.33
2018-01-15T03:42:50.798Z,939.26
2018-01-15T03:43:50.789Z,939.25
2018-01-15T03:44:50.780Z,939.25
2018-01-15T03:45:50.772Z,939.25
2018-01-15T03:46:50.763Z,939.27
2018-01-15T03:47:50.755Z,939.25
2018-01-15T03:48:50.746Z,939.21
2018-01-15T03:49:50.738Z,939.23
2018-01-15T03:50:50.732Z,939.20
2018-01-15T03:51:50.722Z,939.21
2018-01-15T03:52:50.713Z,939.12
2018-01-15T03:53:50.706Z,939.14
2018-01-15T03:54:50.696Z,939.08
2018-01-15T03:55:50.688Z,939.09
2018-01-15T03:56:50.681Z,939.10
2018-01-15T03:57:50.672Z,939.10
2018-01-15T03:58:50.665Z,939.11
2018-01-15T03:59:50.654Z,939.09
2018-01-15T04:00:50.646Z,939.08
2018-01-15T04:01:50.638Z,939.03
2018-01-15T04:02:50.630Z,939.09
2018-01-15T04:03:50.621Z,939.05
2018-01-15T04:04:50.614Z,938.99
2018-01-15T04:05:50.605Z,939.04
2018-01-15T04:06:50.598Z,939.05
2018-01-15T04:07:50.589Z,938.98
2018-01-15T04:08:50.582Z,939.00
2018-01-15T04:09:50.572Z,938.95
2018-01-15T04:10:50.565Z,938.98
2018-01-15T04:11:50.555Z,938.97
2018-01-15T04:12:50.548Z,938.96
2018-01-15T04:13:50.555Z,938.93
2018-01-15T04:14:50.532Z,939.00
2018-01-15T04:15:50.523Z,938.96
2018-01-15T04:16:50.514Z,938.95
2018-01-15T04:17:50.506Z,938.95
2018-01-15T04:18:50.499Z,938.95
2018-01-15T04:19:50.488Z,938.92
2018-01-15T04:20:50.481Z,938.91
2018-01-15T04:21:50.473Z,938.95
2018-01-15T04:22:50.465Z,938.94
2018-01-15T04:23:50.454Z,938.90
2018-01-15T04:24:50.448Z,938.93
2018-01-15T04:25:50.439Z,938.96
2018-01-15T04:26:50.431Z,938.94
2018-01-15T04:27:50.423Z,938.90
2018-01-15T04:28:50.414Z,938.88
2018-01-15T04:29:50.406Z,938.87
2018-01-15T04:30:50.399Z,938.90
2018-01-15T04:31:50.388Z,938.87
2018-01-15T04:32:50.380Z,938.85
2018-01-15T04:33:50.373Z,938.87
2018-01-15T04:34:50.366Z,938.90
2018-01-15T04:35:50.354Z,938.90
2018-01-15T04:36:50.346Z,938.91
2018-01-15T04:37:50.339Z,938.87
2018-01-15T04:38:50.329Z,938.90
2018-01-15T04:39:50.320Z,938.91
2018-01-15T04:40:50.312Z,938.90
2018-01-15T04:41:50.303Z,938.91
2018-01-15T04:42:50.296Z,938.89
2018-01-15T04:43:50.286Z,938.87
2018-01-15T04:44:50.279Z,938.86
2018-01-15T04:45:50.271Z,938.88
2018-01-15T04:46:50.262Z,938.80
2018-01-15T04:47:50.252Z,938.77
2018-01-15T04:48:50.246Z,938.77
2018-01-15T04:49:50.235Z,938.77
2018-01-15T04:50:50.227Z,938.77
2018-01-15T04:51:50.218Z,938.77
2018-01-15T04:52:50.212Z,938.80
2018-01-15T04:53:50.201Z,938.81
2018-01-15T04:54:50.194Z,938.81
2018-01-15T04:55:50.184Z,938.80
2018-01-15T04:56:50.176Z,938.80
2018-01-15T04:57:50.168Z,938.82
2018-01-15T04:58:50.159Z,938.78
2018-01-15T04:59:50.150Z,938.75
2018-01-15T05:00:50.143Z,938.76
2018-01-15T05:01:50.134Z,938.77
2018-01-15T05:02:50.132Z,938.76
2018-01-15T05:03:50.116Z,938.72
2018-01-15T05:04:50.107Z,938.74
2018-01-15T05:05:50.100Z,938.71
2018-01-15T05:06:50.092Z,938.67
2018-01-15T05:07:50.083Z,938.69
2018-01-15T05:08:50.074Z,938.72
2018-01-15T05:09:50.065Z,938.73
2018-01-15T05:10:50.056Z,938.69
2018-01-15T05:11:50.049Z,938.67
2018-01-15T05:12:50.039Z,938.70
2018-01-15T05:13:50.032Z,938.68
2018-01-15T05:14:50.023Z,938.71
2018-01-15T05:15:50.019Z,938.69
2018-01-15T05:16:50.005Z,938.69
2018-01-15T05:17:49.998Z,938.73
2018-01-15T05:18:49.988Z,938.72
2018-01-15T05:19:49.983Z,938.76
2018-01-15T05:20:49.971Z,938.74
2018-01-15T05:21:49.964Z,938.77
2018-01-15T05:22:49.955Z,938.73
2018-01-15T05:23:49.945Z,938.71
2018-01-15T05:24:49.937Z,938.69
2018-01-15T05:25:49.929Z,938.70
2018-01-15T05:26:49.922Z,938.71
2018-01-15T05:27:49.912Z,938.73
2018-01-15T05:28:49.904Z,938.73
2018-01-15T05:29:49.896Z,938.76
2018-01-15T05:30:49.887Z,938.74
2018-01-15T05:31:49.878Z,938.71
2018-01-15T05:32:49.874Z,938.77
2018-01-15T05:33:49.862Z,938.74
2018-01-15T05:34:49.859Z,938.72
2018-01-15T05:35:49.844Z,938.72
2018-01-15T05:36:49.836Z,938.65
2018-01-15T05:37:49.827Z,938.68
2018-01-15T05:38:49.819Z,938.68
2018-01-15T05:39:49.810Z,938.73
2018-01-15T05:40:49.802Z,938.63
2018-01-15T05:41:49.793Z,938.67
2018-01-15T05:42:49.786Z,938.64
2018-01-15T05:43:49.777Z,938.67
2018-01-15T05:44:49.770Z,938.64
2018-01-15T05:45:49.761Z,938.67
2018-01-15T05:46:49.751Z,938.70
2018-01-15T05:47:49.744Z,938.65
2018-01-15T05:48:49.738Z,938.67
2018-01-15T05:49:49.726Z,938.73
2018-01-15T05:50:49.720Z,938.69
2018-01-15T05:51:49.711Z,938.66
2018-01-15T05:52:49.702Z,938.74
2018-01-15T05:53:49.695Z,938.73
2018-01-15T05:54:49.686Z,938.70
2018-01-15T05:55:49.676Z,938.69
2018-01-15T05:56:49.668Z,938.69
2018-01-15T05:57:49.667Z,938.68
2018-01-15T05:58:49.657Z,938.68
2018-01-15T05:59:49.644Z,938.66
2018-01-15T06:00:49.635Z,938.64
2018-01-15T06:01:49.626Z,938.62
2018-01-15T06:02:49.618Z,938.69
2018-01-15T06:03:49.610Z,938.64
2018-01-15T06:04:49.600Z,938.64
2018-01-15T06:05:49.594Z,938.64
2018-01-15T06:06:49.586Z,938.66
2018-01-15T06:07:49.577Z,938.62
2018-01-15T06:08:49.567Z,938.62
2018-01-15T06:09:49.560Z,938.63
2018-01-15T06:10:49.550Z,938.63
2018-01-15T06:11:49.542Z,938.66
2018-01-15T06:12:49.535Z,938.68
2018-01-15T06:13:49.525Z,938.67
2018-01-15T06:14:49.518Z,938.66
2018-01-15T06:15:49.511Z,938.67
2018-01-15T06:16:49.500Z,938.61
2018-01-15T06:17:49.491Z,938.63
2018-01-15T06:18:49.483Z,938.63
2018-01-15T06:19:49.476Z,938.60
2018-01-15T06:20:49.468Z,938.58
2018-01-15T06:21:49.457Z,938.58
2018-01-15T06:22:49.450Z,938.54
2018-01-15T06:23:49.440Z,938.54
2018-01-15T06:24:49.430Z,938.56
2018-01-15T06:25:49.423Z,938.57
2018-01-15T06:26:49.414Z,938.54
2018-01-15T06:27:49.408Z,938.52
2018-01-15T06:28:49.398Z,938.51
2018-01-15T06:29:49.395Z,938.51
2018-01-15T06:30:49.380Z,938.50
2018-01-15T06:31:49.371Z,938.51
2018-01-15T06:32:49.365Z,938.51
2018-01-15T06:33:49.354Z,938.53
2018-01-15T06:34:49.346Z,938.54
2018-01-15T06:35:49.338Z,938.53
2018-01-15T06:36:49.329Z,938.53
2018-01-15T06:37:49.320Z,938.56
2018-01-15T06:38:49.312Z,938.52
2018-01-15T06:39:49.302Z,938.54
2018-01-15T06:40:49.294Z,938.55
2018-01-15T06:41:49.286Z,938.56
2018-01-15T06:42:49.279Z,938.50
2018-01-15T06:43:49.271Z,938.56
2018-01-15T06:44:49.261Z,938.53
2018-01-15T06:45:49.252Z,938.52
2018-01-15T06:46:49.244Z,938.53
2018-01-15T06:47:49.234Z,938.51
2018-01-15T06:48:49.226Z,938.51
2018-01-15T06:49:49.218Z,938.48
2018-01-15T06:50:49.211Z,938.46
2018-01-15T06:51:49.202Z,938.50
2018-01-15T06:52:49.193Z,938.48
2018-01-15T06:53:49.184Z,938.50
2018-01-15T06:54:49.175Z,938.45
2018-01-15T06:55:49.167Z,938.51
2018-01-15T06:56:49.159Z,938.51
2018-01-15T06:57:49.151Z,938.50
2018-01-15T06:58:49.143Z,938.53
2018-01-15T06:59:49.132Z,938.56
2018-01-15T07:00:49.125Z,938.54
2018-01-15T07:01:49.117Z,938.55
2018-01-15T07:02:49.108Z,938.57
2018-01-15T07:03:49.098Z,938.56
2018-01-15T07:04:49.091Z,938.54
2018-01-15T07:05:49.083Z,938.56
2018-01-15T07:06:49.075Z,938.54
2018-01-15T07:07:49.065Z,938.53
2018-01-15T07:08:49.056Z,938.51
2018-01-15T07:09:49.049Z,938.50
2018-01-15T07:10:49.040Z,938.48
2018-01-15T07:11:49.031Z,938.48
2018-01-15T07:12:49.024Z,938.49
2018-01-15T07:13:49.014Z,938.45
2018-01-15T07:14:49.006Z,938.45
2018-01-15T07:15:48.998Z,938.44
2018-01-15T07:16:48.988Z,938.48
2018-01-15T07:17:48.982Z,938.47
2018-01-15T07:18:48.973Z,938.49
2018-01-15T07:19:48.964Z,938.46
2018-01-15T07:20:48.957Z,938.46
2018-01-15T07:21:48.949Z,938.47
2018-01-15T07:22:48.939Z,938.48
2018-01-15T07:23:48.931Z,938.46
2018-01-15T07:24:48.921Z,938.47
2018-01-15T07:25:48.914Z,938.51
2018-01-15T07:26:48.906Z,938.48
2018-01-15T07:27:48.897Z,938.46
2018-01-15T07:28:48.890Z,938.46
2018-01-15T07:29:48.882Z,938.49
2018-01-15T07:30:48.875Z,938.49
2018-01-15T07:31:48.864Z,938.52
2018-01-15T07:32:48.856Z,938.49
2018-01-15T07:33:48.848Z,938.47
2018-01-15T07:34:48.840Z,938.50
2018-01-15T07:35:48.832Z,938.51
2018-01-15T07:36:48.822Z,938.50
2018-01-15T07:37:48.816Z,938.49
2018-01-15T07:38:48.854Z,938.50
2018-01-15T07:39:48.798Z,938.56
2018-01-15T07:40:48.790Z,938.56
2018-01-15T07:41:48.782Z,938.57
2018-01-15T07:42:48.773Z,938.52
2018-01-15T07:43:48.765Z,938.56
2018-01-15T07:44:48.758Z,938.58
2018-01-15T07:45:48.757Z,938.58
2018-01-15T07:46:48.743Z,938.63
2018-01-15T07:47:48.739Z,938.58
2018-01-15T07:48:48.725Z,938.60
2018-01-15T07:49:48.718Z,938.66
2018-01-15T07:50:48.710Z,938.70
2018-01-15T07:51:48.703Z,938.73
2018-01-15T07:52:48.695Z,938.71
2018-01-15T07:53:48.689Z,938.76
2018-01-15T07:54:48.681Z,938.79
2018-01-15T07:55:48.675Z,938.83
2018-01-15T07:56:48.668Z,938.86
2018-01-15T07:57:48.662Z,938.92
2018-01-15T07:58:48.654Z,938.88
2018-01-15T07:59:48.649Z,938.93
2018-01-15T08:00:48.642Z,938.89
2018-01-15T08:01:48.638Z,938.90
2018-01-15T08:02:48.631Z,938.87
2018-01-15T08:03:48.626Z,938.89
2018-01-15T08:04:48.633Z,938.85
2018-01-15T08:05:48.616Z,938.85
2018-01-15T08:06:48.611Z,938.85
2018-01-15T08:07:48.606Z,938.81
2018-01-15T08:08:48.602Z,938.81
2018-01-15T08:09:48.598Z,938.81
2018-01-15T08:10:48.593Z,938.78
2018-01-15T08:11:48.586Z,938.77
2018-01-15T08:12:48.583Z,938.73
2018-01-15T08:13:48.577Z,938.72
2018-01-15T08:14:48.572Z,938.76
2018-01-15T08:15:48.567Z,938.73
2018-01-15T08:16:48.561Z,938.74
2018-01-15T08:17:48.558Z,938.71
2018-01-15T08:18:48.551Z,938.75
2018-01-15T08:19:48.543Z,938.79
2018-01-15T08:20:48.537Z,938.78
2018-01-15T08:21:48.533Z,938.85
2018-01-15T08:22:48.527Z,938.81
2018-01-15T08:23:48.522Z,938.84
2018-01-15T08:24:48.517Z,938.83
2018-01-15T08:25:48.511Z,938.83
2018-01-15T08:26:48.507Z,938.84
2018-01-15T08:27:48.501Z,938.76
2018-01-15T08:28:48.495Z,938.73
2018-01-15T08:29:48.516Z,938.74
2018-01-15T08:30:48.506Z,938.76
2018-01-15T08:31:48.478Z,938.82
2018-01-15T08:32:48.505Z,938.77
2018-01-15T08:33:48.469Z,938.76
2018-01-15T08:34:48.462Z,938.81
2018-01-15T08:35:48.456Z,938.80
2018-01-15T08:36:48.452Z,938.83
2018-01-15T08:37:48.446Z,938.77
2018-01-15T08:38:48.441Z,938.73
2018-01-15T08:39:48.434Z,938.76
2018-01-15T08:40:48.429Z,938.73
2018-01-15T08:41:48.425Z,938.77
2018-01-15T08:42:48.419Z,938.72
2018-01-15T08:43:48.414Z,938.73
2018-01-15T08:44:48.408Z,938.66
2018-01-15T08:45:48.403Z,938.67
2018-01-15T08:46:48.396Z,938.69
2018-01-15T08:47:48.390Z,938.68
2018-01-15T08:48:48.385Z,938.71
2018-01-15T08:49:48.379Z,938.68
2018-01-15T08:50:48.374Z,938.70
2018-01-15T08:51:48.384Z,938.71
2018-01-15T08:52:48.361Z,938.75
2018-01-15T08:53:48.357Z,938.73
2018-01-15T08:54:48.350Z,938.69
2018-01-15T08:55:48.345Z,938.70
2018-01-15T08:56:48.338Z,938.64
2018-01-15T08:57:48.332Z,938.68
2018-01-15T08:58:48.327Z,938.75
2018-01-15T08:59:48.322Z,938.73
2018-01-15T09:00:48.330Z,938.70
2018-01-15T09:01:48.310Z,938.75
2018-01-15T09:02:48.305Z,938.70
2018-01-15T09:03:48.298Z,938.75
2018-01-15T09:04:48.293Z,938.67
2018-01-15T09:05:48.287Z,938.69
2018-01-15T09:06:48.281Z,938.66
2018-01-15T09:07:48.276Z,938.66
2018-01-15T09:08:48.270Z,938.70
2018-01-15T09:09:48.264Z,938.67
2018-01-15T09:10:48.261Z,938.67
2018-01-15T09:11:48.253Z,938.65
2018-01-15T09:12:48.247Z,938.65
2018-01-15T09:13:48.240Z,938.62
2018-01-15T09:14:48.235Z,938.61
2018-01-15T09:15:48.229Z,938.61
2018-01-15T09:16:48.224Z,938.61
2018-01-15T09:17:48.219Z,938.59
2018-01-15T09:18:48.212Z,938.57
2018-01-15T09:19:48.206Z,938.66
2018-01-15T09:20:48.201Z,938.58
2018-01-15T09:21:48.196Z,938.60
2018-01-15T09:22:48.192Z,938.53
2018-01-15T09:23:48.187Z,938.54
2018-01-15T09:24:48.179Z,938.50
2018-01-15T09:25:48.174Z,938.51
2018-01-15T09:26:48.169Z,938.46
2018-01-15T09:27:48.164Z,938.54
2018-01-15T09:28:48.158Z,938.48
2018-01-15T09:29:48.152Z,938.46
2018-01-15T09:30:48.147Z,938.47
2018-01-15T09:31:48.141Z,938.43
2018-01-15T09:32:48.137Z,938.45
2018-01-15T09:33:48.132Z,938.43
2018-01-15T09:34:48.127Z,938.46
2018-01-15T09:35:48.122Z,938.46
2018-01-15T09:36:48.117Z,938.50
2018-01-15T09:37:48.112Z,938.55
2018-01-15T09:38:48.108Z,938.56
2018-01-15T09:39:48.106Z,938.54
2018-01-15T09:40:48.101Z,938.58
2018-01-15T09:41:48.096Z,938.51
2018-01-15T09:42:48.096Z,938.57
2018-01-15T09:43:48.211Z,938.52
2018-01-15T09:44:48.086Z,938.53
2018-01-15T09:45:48.254Z,938.54
2018-01-15T09:46:48.081Z,938.51
2018-01-15T09:47:48.113Z,938.49
2018-01-15T09:48:48.075Z,938.48
2018-01-15T09:49:48.071Z,938.48
2018-01-15T09:50:48.068Z,938.45
2018-01-15T09:51:48.065Z,938.50
2018-01-15T09:52:48.062Z,938.45
2018-01-15T09:53:48.064Z,938.47
2018-01-15T09:54:48.058Z,938.53
2018-01-15T09:55:48.055Z,938.50
2018-01-15T09:56:48.055Z,938.42
2018-01-15T09:57:48.052Z,938.38
2018-01-15T09:58:48.050Z,938.42
2018-01-15T09:59:48.049Z,938.39
2018-01-15T10:00:48.047Z,938.43
2018-01-15T10:01:48.047Z,938.40
2018-01-15T10:02:48.045Z,938.39
2018-01-15T10:03:48.042Z,938.43
2018-01-15T10:04:48.041Z,938.39
2018-01-15T10:05:48.040Z,938.33
2018-01-15T10:06:48.038Z,938.34
2018-01-15T10:07:48.037Z,938.34
2018-01-15T10:08:48.036Z,938.39
2018-01-15T10:09:48.035Z,938.34
2018-01-15T10:10:48.035Z,938.34
2018-01-15T10:11:48.033Z,938.33
2018-01-15T10:12:48.032Z,938.35
2018-01-15T10:13:48.031Z,938.33
2018-01-15T10:14:48.032Z,938.35
2018-01-15T10:15:48.030Z,938.26
2018-01-15T10:16:48.029Z,938.24
2018-01-15T10:17:48.030Z,938.24
2018-01-15T10:18:48.029Z,938.29
2018-01-15T10:19:48.028Z,938.26
2018-01-15T10:20:48.029Z,938.23
2018-01-15T10:21:48.029Z,938.25
2018-01-15T10:22:48.032Z,938.27
2018-01-15T10:23:48.029Z,938.25
2018-01-15T10:24:48.030Z,938.21
2018-01-15T10:25:48.030Z,938.16
2018-01-15T10:26:48.036Z,938.18
2018-01-15T10:27:48.031Z,938.14
2018-01-15T10:28:48.032Z,938.13
2018-01-15T10:29:48.032Z,938.15
2018-01-15T10:30:48.033Z,938.14
2018-01-15T10:31:48.034Z,938.13
2018-01-15T10:32:48.036Z,938.09
2018-01-15T10:33:48.037Z,938.07
2018-01-15T10:34:48.037Z,938.00
2018-01-15T10:35:48.038Z,938.01
2018-01-15T10:36:48.039Z,938.00
2018-01-15T10:37:48.041Z,938.01
2018-01-15T10:38:48.042Z,937.95
2018-01-15T10:39:48.045Z,938.00
2018-01-15T10:40:48.046Z,938.01
2018-01-15T10:41:48.049Z,937.99
2018-01-15T10:42:48.054Z,937.97
2018-01-15T10:43:48.058Z,937.99
2018-01-15T10:44:48.056Z,937.96
2018-01-15T10:45:48.060Z,937.99
2018-01-15T10:46:48.062Z,937.95
2018-01-15T10:47:48.068Z,937.93
2018-01-15T10:48:48.067Z,937.93
2018-01-15T10:49:48.072Z,937.90
2018-01-15T10:50:48.078Z,937.91
2018-01-15T10:51:48.079Z,937.90
2018-01-15T10:52:48.086Z,937.84
2018-01-15T10:53:48.090Z,937.82
2018-01-15T10:54:48.096Z,937.78
2018-01-15T10:55:48.097Z,937.76
2018-01-15T10:56:48.103Z,937.75
2018-01-15T10:57:48.107Z,937.68
2018-01-15T10:58:48.113Z,937.70
2018-01-15T10:59:48.117Z,937.64
2018-01-15T11:00:48.121Z,937.63
2018-01-15T11:01:48.127Z,937.62
2018-01-15T11:02:48.133Z,937.62
2018-01-15T11:03:48.138Z,937.65
2018-01-15T11:04:48.143Z,937.62
2018-01-15T11:05:48.148Z,937.56
2018-01-15T11:06:48.159Z,937.56
2018-01-15T11:07:48.159Z,937.52
2018-01-15T11:08:48.164Z,937.49
2018-01-15T11:09:48.169Z,937.45
2018-01-15T11:10:48.175Z,937.48
2018-01-15T11:11:48.179Z,937.35
2018-01-15T11:12:48.185Z,937.34
2018-01-15T11:13:48.191Z,937.35
2018-01-15T11:14:48.196Z,937.36
2018-01-15T11:15:48.200Z,937.31
2018-01-15T11:16:48.229Z,937.28
2018-01-15T11:17:48.212Z,937.26
2018-01-15T11:18:48.217Z,937.23
2018-01-15T11:19:48.222Z,937.18
2018-01-15T11:20:48.227Z,937.22
2018-01-15T11:21:48.232Z,937.21
2018-01-15T11:22:48.237Z,937.19
2018-01-15T11:23:48.241Z,937.24
2018-01-15T11:24:48.249Z,937.22
2018-01-15T11:25:48.271Z,937.21
2018-01-15T11:26:48.261Z,937.17
2018-01-15T11:27:48.263Z,937.12
2018-01-15T11:28:48.268Z,937.11
2018-01-15T11:29:48.273Z,937.14
2018-01-15T11:30:48.279Z,937.01
2018-01-15T11:31:48.284Z,937.06
2018-01-15T11:32:48.290Z,937.03
2018-01-15T11:33:48.293Z,937.01
2018-01-15T11:34:48.299Z,936.98
2018-01-15T11:35:48.302Z,936.96
2018-01-15T11:36:48.307Z,936.93
2018-01-15T11:37:48.312Z,936.92
2018-01-15T11:38:48.317Z,936.87
2018-01-15T11:39:48.320Z,936.87
2018-01-15T11:40:48.324Z,936.82
2018-01-15T11:41:48.329Z,936.83
2018-01-15T11:42:48.335Z,936.83
2018-01-15T11:43:48.338Z,936.83
2018-01-15T11:44:48.344Z,936.82
2018-01-15T11:45:48.348Z,936.78
2018-01-15T11:46:48.352Z,936.78
2018-01-15T11:47:48.356Z,936.76
2018-01-15T11:48:48.358Z,936.72
2018-01-15T11:49:48.364Z,936.69
2018-01-15T11:50:48.367Z,936.68
2018-01-15T11:51:48.370Z,936.61
2018-01-15T11:52:48.372Z,936.57
2018-01-15T11:53:48.376Z,936.55
2018-01-15T11:54:48.380Z,936.50
2018-01-15T11:55:48.382Z,936.52
2018-01-15T11:56:48.386Z,936.52
2018-01-15T11:57:48.388Z,936.45
2018-01-15T11:58:48.393Z,936.41
2018-01-15T11:59:48.395Z,936.37
2018-01-15T12:00:48.400Z,936.41
2018-01-15T12:01:48.401Z,936.38
2018-01-15T12:02:48.406Z,936.31
2018-01-15T12:03:48.408Z,936.34
2018-01-15T12:04:48.419Z,936.31
2018-01-15T12:05:48.415Z,936.33
2018-01-15T12:06:48.418Z,936.32
2018-01-15T12:07:48.422Z,936.30
2018-01-15T12:08:48.427Z,936.30
2018-01-15T12:09:48.429Z,936.27
2018-01-15T12:10:48.431Z,936.22
2018-01-15T12:11:48.435Z,936.20
2018-01-15T12:12:48.438Z,936.23
2018-01-15T12:13:48.441Z,936.12
2018-01-15T12:14:48.448Z,936.15
2018-01-15T12:15:48.451Z,936.11
2018-01-15T12:16:48.453Z,936.07
2018-01-15T12:17:48.458Z,936.06
2018-01-15T12:18:48.465Z,936.02
2018-01-15T12:19:48.473Z,935.98
2018-01-15T12:20:48.469Z,935.93
2018-01-15T12:21:48.474Z,935.91
2018-01-15T12:22:48.477Z,935.87
2018-01-15T12:23:48.482Z,935.85
2018-01-15T12:24:48.496Z,935.82
2018-01-15T12:25:48.488Z,935.81
2018-01-15T12:26:48.492Z,935.79
2018-01-15T12:27:48.496Z,935.75
2018-01-15T12:28:48.499Z,935.74